createdAt,value
2019-05-23T00:02:27.588Z,67.31
2019-05-23T00:05:01.084Z,68.09
2019-05-23T00:07:30.677Z,68.71
2019-05-23T00:10:01.754Z,68.49
2019-05-23T00:12:35.547Z,68.64
2019-05-23T00:15:08.795Z,67.92
2019-05-23T00:17:37.412Z,67.65
2019-05-23T00:20:07.812Z,67.79
2019-05-23T00:22:37.230Z,67.64
2019-05-23T00:25:07.884Z,67.66
2019-05-23T00:27:36.580Z,68.11
2019-05-23T00:30:09.053Z,67.33
2019-05-23T00:32:47.623Z,67.82
2019-05-23T00:35:17.618Z,67.75
2019-05-23T00:37:47.396Z,67.59
2019-05-23T00:40:17.018Z,68.11
2019-05-23T00:42:45.853Z,68.71
2019-05-23T00:45:15.592Z,69.12
2019-05-23T00:47:44.928Z,69.49
2019-05-23T00:50:16.580Z,69.38
2019-05-23T00:52:45.873Z,69.16
2019-05-23T00:55:16.514Z,69.36
2019-05-23T00:57:45.387Z,69.51
2019-05-23T01:00:18.565Z,69.85
2019-05-23T01:02:48.247Z,69.58
2019-05-23T01:05:16.879Z,70.31
2019-05-23T01:07:45.521Z,70.25
2019-05-23T01:10:16.221Z,69.95
2019-05-23T01:12:45.027Z,70.38
2019-05-23T01:15:14.773Z,70.63
2019-05-23T01:17:43.584Z,70.73
2019-05-23T01:20:14.444Z,70.91
2019-05-23T01:22:43.993Z,70.70
2019-05-23T01:25:14.297Z,70.82
2019-05-23T01:27:44.614Z,70.93
2019-05-23T01:30:15.888Z,71.28
2019-05-23T01:32:58.219Z,71.42
2019-05-23T01:35:27.922Z,72.22
2019-05-23T01:37:56.819Z,72.91
2019-05-23T01:40:25.773Z,73.28
2019-05-23T01:42:55.567Z,73.65
2019-05-23T01:45:24.967Z,74.63
2019-05-23T01:47:53.999Z,75.25
2019-05-23T01:50:26.087Z,75.47
2019-05-23T01:52:55.085Z,75.59
2019-05-23T01:55:25.295Z,75.52
2019-05-23T01:57:54.749Z,75.71
2019-05-23T02:00:26.214Z,75.88
2019-05-23T02:02:56.120Z,75.81
2019-05-23T02:05:25.828Z,75.86
2019-05-23T02:07:54.920Z,76.04
2019-05-23T02:10:24.533Z,75.75
2019-05-23T02:12:53.527Z,75.66
2019-05-23T02:15:22.436Z,75.76
2019-05-23T02:17:51.425Z,75.97
2019-05-23T02:20:20.420Z,76.18
2019-05-23T02:22:49.170Z,76.17
2019-05-23T02:25:21.535Z,76.11
2019-05-23T02:27:50.995Z,76.34
2019-05-23T02:30:33.737Z,76.14
2019-05-23T02:32:53.283Z,76.07
2019-05-23T02:35:22.747Z,75.50
2019-05-23T02:38:09.043Z,73.90
2019-05-23T02:40:45.767Z,74.21
2019-05-23T02:43:21.210Z,74.39
2019-05-23T02:45:53.185Z,74.91
2019-05-23T02:48:24.329Z,75.23
2019-05-23T02:51:05.008Z,74.61
2019-05-23T02:53:37.469Z,74.39
2019-05-23T02:56:11.959Z,74.64
2019-05-23T02:59:01.764Z,74.96
2019-05-23T03:02:01.034Z,74.86
2019-05-23T03:04:35.133Z,75.43
2019-05-23T03:07:04.355Z,75.93
2019-05-23T03:09:34.258Z,75.69
2019-05-23T03:12:05.057Z,75.34
2019-05-23T03:14:36.590Z,75.13
2019-05-23T03:17:08.410Z,74.99
2019-05-23T03:19:43.380Z,75.53
2019-05-23T03:22:31.271Z,75.30
2019-05-23T03:25:03.579Z,75.12
2019-05-23T03:27:35.596Z,74.32
2019-05-23T03:30:08.669Z,74.92
2019-05-23T03:32:45.742Z,73.89
2019-05-23T03:35:16.494Z,74.14
2019-05-23T03:37:46.021Z,74.14
2019-05-23T03:40:18.920Z,73.73
2019-05-23T03:42:48.763Z,73.41
2019-05-23T03:45:27.012Z,73.08
2019-05-23T03:47:56.080Z,72.88
2019-05-23T03:50:26.646Z,71.66
2019-05-23T03:52:58.044Z,70.48
2019-05-23T03:55:29.592Z,70.44
2019-05-23T03:58:00.937Z,70.31
2019-05-23T04:00:37.399Z,69.63
2019-05-23T04:03:09.180Z,68.80
2019-05-23T04:05:38.912Z,68.76
2019-05-23T04:08:07.992Z,68.93
2019-05-23T04:10:36.857Z,69.06
2019-05-23T04:13:08.182Z,69.37
2019-05-23T04:15:38.895Z,69.25
2019-05-23T04:18:09.159Z,69.39
2019-05-23T04:20:42.236Z,69.67
2019-05-23T04:23:11.233Z,69.18
2019-05-23T04:25:40.885Z,69.48
2019-05-23T04:30:34.477Z,68.65
2019-05-23T04:33:03.694Z,68.14
2019-05-23T04:35:32.314Z,68.39
2019-05-23T04:38:01.182Z,68.62
2019-05-23T04:40:29.973Z,68.34
2019-05-23T04:42:58.609Z,67.35
2019-05-23T04:45:28.933Z,66.46
2019-05-23T04:47:57.536Z,67.25
2019-05-23T04:50:26.546Z,65.73
2019-05-23T04:52:55.254Z,64.73
2019-05-23T04:55:25.469Z,63.64
2019-05-23T04:57:54.194Z,63.07
2019-05-23T05:00:23.947Z,62.38
2019-05-23T05:02:55.618Z,62.43
2019-05-23T05:05:24.830Z,62.63
2019-05-23T05:07:53.557Z,63.71
2019-05-23T05:10:23.770Z,63.43
2019-05-23T05:12:52.483Z,62.19
2019-05-23T05:15:22.182Z,62.54
2019-05-23T05:17:50.822Z,62.42
2019-05-23T05:20:20.338Z,60.92
2019-05-23T05:22:49.393Z,60.12
2019-05-23T05:25:19.396Z,60.15
2019-05-23T05:27:48.460Z,59.75
2019-05-23T05:30:17.402Z,60.22
2019-05-23T05:32:47.014Z,58.71
2019-05-23T05:35:16.042Z,58.53
2019-05-23T05:37:44.758Z,58.42
2019-05-23T05:40:15.021Z,58.05
2019-05-23T05:42:45.789Z,57.32
2019-05-23T05:45:15.010Z,56.30
2019-05-23T05:47:43.713Z,55.13
2019-05-23T05:50:14.310Z,54.81
2019-05-23T05:52:43.257Z,53.45
2019-05-23T05:55:13.412Z,53.26
2019-05-23T05:57:42.532Z,52.62
2019-05-23T06:00:27.726Z,52.22
2019-05-23T06:03:04.528Z,50.50
2019-05-23T06:05:44.941Z,50.87
2019-05-23T06:08:15.430Z,50.60
2019-05-23T06:10:45.425Z,50.81
2019-05-23T06:13:14.094Z,50.07
2019-05-23T06:15:43.513Z,49.53
2019-05-23T06:18:13.104Z,49.57
2019-05-23T06:20:45.222Z,49.88
2019-05-23T06:23:13.852Z,50.23
2019-05-23T06:25:42.678Z,49.30
2019-05-23T06:28:11.973Z,48.44
2019-05-23T06:30:41.879Z,47.32
2019-05-23T06:33:22.519Z,46.04
2019-05-23T06:35:41.939Z,45.02
2019-05-23T06:38:11.043Z,43.26
2019-05-23T06:40:40.955Z,42.14
2019-05-23T06:43:10.160Z,42.35
2019-05-23T06:45:40.787Z,43.33
2019-05-23T06:48:10.819Z,43.04
2019-05-23T06:50:39.527Z,40.55
2019-05-23T06:53:08.911Z,40.31
2019-05-23T06:55:37.564Z,40.40
2019-05-23T06:58:06.556Z,41.54
2019-05-23T07:00:35.312Z,39.70
2019-05-23T07:03:04.713Z,40.16
2019-05-23T07:05:35.916Z,39.59
2019-05-23T07:08:06.820Z,39.52
2019-05-23T07:10:35.748Z,38.05
2019-05-23T07:13:04.889Z,37.89
2019-05-23T07:15:33.941Z,38.15
2019-05-23T07:18:02.851Z,37.77
2019-05-23T07:20:31.728Z,37.92
2019-05-23T07:23:01.093Z,37.12
2019-05-23T07:25:30.030Z,37.36
2019-05-23T07:27:59.528Z,35.41
2019-05-23T07:30:28.588Z,35.00
2019-05-23T07:32:58.895Z,34.24
2019-05-23T07:35:27.598Z,31.48
2019-05-23T07:37:56.644Z,30.53
2019-05-23T07:40:28.078Z,27.93
2019-05-23T07:42:56.872Z,26.87
2019-05-23T07:45:27.143Z,24.53
2019-05-23T07:47:55.716Z,22.97
2019-05-23T07:50:24.454Z,20.90
2019-05-23T07:52:55.120Z,18.37
2019-05-23T07:55:34.675Z,17.91
2019-05-23T07:58:03.789Z,16.41
2019-05-23T08:00:37.298Z,15.46
2019-05-23T08:03:07.569Z,14.07
2019-05-23T08:05:36.523Z,12.63
2019-05-23T08:08:05.794Z,12.77
2019-05-23T08:10:34.779Z,14.73
2019-05-23T08:13:03.718Z,16.55
2019-05-23T08:15:32.722Z,18.69
2019-05-23T08:18:02.061Z,19.29
2019-05-23T08:20:30.957Z,17.48
2019-05-23T08:22:59.605Z,17.46
2019-05-23T08:25:28.260Z,17.89
2019-05-23T08:27:57.074Z,18.21
2019-05-23T08:30:26.079Z,19.79
2019-05-23T08:32:54.988Z,18.19
2019-05-23T08:35:23.958Z,16.51
2019-05-23T08:37:55.014Z,14.07
2019-05-23T08:40:25.575Z,13.27
2019-05-23T08:42:54.567Z,12.20
2019-05-23T08:45:23.340Z,12.24
2019-05-23T08:47:51.946Z,11.41
2019-05-23T08:50:22.194Z,10.85
2019-05-23T08:52:50.828Z,11.67
2019-05-23T08:55:21.865Z,11.85
2019-05-23T08:57:50.959Z,12.68
2019-05-23T09:00:20.699Z,12.79
2019-05-23T09:02:51.866Z,12.09
2019-05-23T09:05:21.610Z,11.76
2019-05-23T09:07:50.606Z,10.38
2019-05-23T09:10:20.233Z,9.49
2019-05-23T09:12:49.335Z,9.06
2019-05-23T09:15:17.974Z,9.25
2019-05-23T09:17:52.973Z,8.91
2019-05-23T09:20:17.471Z,7.78
2019-05-23T09:22:46.425Z,7.96
2019-05-23T09:25:16.040Z,7.69
2019-05-23T09:27:45.543Z,7.40
2019-05-23T09:30:15.341Z,7.07
2019-05-23T09:32:44.087Z,7.07
2019-05-23T09:35:20.923Z,7.16
2019-05-23T09:37:45.039Z,6.97
2019-05-23T09:40:14.437Z,6.88
2019-05-23T09:42:42.993Z,6.77
2019-05-23T09:45:12.965Z,7.20
2019-05-23T09:47:41.861Z,6.47
2019-05-23T09:50:13.921Z,7.70
2019-05-23T09:52:42.530Z,6.79
2019-05-23T09:55:12.522Z,6.03
2019-05-23T09:57:41.482Z,6.68
2019-05-23T10:00:12.777Z,6.27
2019-05-23T10:02:41.605Z,6.41
2019-05-23T10:05:12.253Z,7.40
2019-05-23T10:07:41.110Z,6.81
2019-05-23T10:10:10.707Z,7.48
2019-05-23T10:12:39.338Z,7.55
2019-05-23T10:15:11.914Z,7.60
2019-05-23T10:17:40.571Z,7.53
2019-05-23T10:20:09.715Z,7.17
2019-05-23T10:22:38.518Z,6.22
2019-05-23T10:25:07.992Z,7.13
2019-05-23T10:27:36.685Z,6.83
2019-05-23T10:30:10.533Z,5.54
2019-05-23T10:32:39.172Z,6.32
2019-05-23T10:35:08.290Z,6.18
2019-05-23T10:37:36.911Z,7.75
2019-05-23T10:40:07.651Z,7.28
2019-05-23T10:42:38.166Z,7.58
2019-05-23T10:45:07.559Z,7.26
2019-05-23T10:47:36.194Z,7.50
2019-05-23T10:50:08.997Z,7.97
2019-05-23T10:52:37.811Z,8.59
2019-05-23T10:55:06.656Z,9.15
2019-05-23T10:57:35.292Z,10.75
2019-05-23T11:00:06.248Z,13.29
2019-05-23T11:02:36.479Z,14.53
2019-05-23T11:05:12.777Z,18.14
2019-05-23T11:07:38.291Z,18.51
2019-05-23T11:10:07.799Z,19.67
2019-05-23T11:12:37.328Z,20.79
2019-05-23T11:15:09.475Z,20.65
2019-05-23T11:17:38.282Z,24.30
2019-05-23T11:20:09.064Z,24.82
2019-05-23T11:22:37.815Z,25.61
2019-05-23T11:25:08.176Z,24.55
2019-05-23T11:27:37.097Z,24.98
2019-05-23T11:30:11.365Z,26.64
2019-05-23T11:32:39.992Z,28.10
2019-05-23T11:35:08.739Z,27.88
2019-05-23T11:37:37.353Z,28.12
2019-05-23T11:40:07.899Z,29.11
2019-05-23T11:42:36.821Z,30.10
2019-05-23T11:45:07.657Z,28.76
2019-05-23T11:47:36.484Z,28.59
2019-05-23T11:50:06.739Z,31.05
2019-05-23T11:52:35.552Z,29.22
2019-05-23T11:55:06.515Z,29.83
2019-05-23T11:57:37.829Z,31.21
2019-05-23T12:00:10.845Z,29.84
2019-05-23T12:02:44.315Z,31.23
2019-05-23T12:05:14.922Z,30.45
2019-05-23T12:07:43.591Z,30.60
2019-05-23T12:10:13.504Z,32.93
2019-05-23T12:12:42.368Z,31.30
2019-05-23T12:15:14.036Z,31.97
2019-05-23T12:17:42.739Z,31.76
2019-05-23T12:20:11.952Z,32.32
2019-05-23T12:22:41.398Z,31.20
2019-05-23T12:25:22.005Z,30.75
2019-05-23T12:27:42.263Z,30.72
2019-05-23T12:30:14.299Z,30.59
2019-05-23T12:32:42.951Z,30.47
2019-05-23T12:35:12.397Z,31.52
2019-05-23T12:37:41.161Z,30.99
2019-05-23T12:40:12.121Z,31.87
2019-05-23T12:42:40.766Z,32.25
2019-05-23T12:45:12.359Z,31.63
2019-05-23T12:47:51.605Z,29.90
2019-05-23T12:50:22.499Z,29.66
2019-05-23T12:52:51.141Z,29.21
2019-05-23T12:55:19.781Z,27.55
2019-05-23T12:57:48.468Z,29.01
2019-05-23T13:00:35.555Z,28.19
2019-05-23T13:03:04.752Z,26.29
2019-05-23T13:05:33.743Z,28.91
2019-05-23T13:08:05.961Z,28.22
2019-05-23T13:10:33.396Z,28.69
2019-05-23T13:13:02.034Z,29.55
2019-05-23T13:15:31.330Z,28.09
2019-05-23T13:17:59.958Z,28.92
2019-05-23T13:20:28.861Z,28.71
2019-05-23T13:22:57.425Z,28.14
2019-05-23T13:25:27.519Z,28.48
2019-05-23T13:27:58.840Z,28.93
2019-05-23T13:30:28.297Z,29.26
2019-05-23T13:32:57.065Z,29.53
2019-05-23T13:35:26.164Z,30.97
2019-05-23T13:37:54.903Z,30.79
2019-05-23T13:40:23.583Z,31.23
2019-05-23T13:42:52.243Z,32.16
2019-05-23T13:45:21.252Z,32.90
2019-05-23T13:47:50.067Z,33.61
2019-05-23T13:50:20.461Z,33.55
2019-05-23T13:52:49.155Z,34.32
2019-05-23T13:55:17.880Z,34.36
2019-05-23T13:57:46.559Z,34.21
2019-05-23T14:00:16.603Z,35.02
2019-05-23T14:02:45.496Z,36.08
2019-05-23T14:05:18.697Z,36.54
2019-05-23T14:07:45.227Z,36.15
2019-05-23T14:10:14.289Z,37.09
2019-05-23T14:12:44.090Z,37.22
2019-05-23T14:15:14.458Z,36.94
2019-05-23T14:17:46.988Z,36.65
2019-05-23T14:20:16.427Z,35.83
2019-05-23T14:23:02.505Z,34.60
2019-05-23T14:25:32.200Z,34.59
2019-05-23T14:28:02.545Z,33.34
2019-05-23T14:30:38.876Z,34.43
2019-05-23T14:33:12.322Z,33.96
2019-05-23T14:35:45.441Z,34.77
2019-05-23T14:38:29.618Z,34.50
2019-05-23T14:40:46.058Z,35.60
2019-05-23T14:43:16.405Z,34.58
2019-05-23T14:46:01.641Z,34.27
2019-05-23T14:48:32.097Z,34.25
2019-05-23T14:51:08.170Z,33.84
2019-05-23T14:53:41.137Z,35.48
2019-05-23T14:56:10.112Z,34.41
2019-05-23T14:58:38.727Z,34.09
2019-05-23T15:01:08.999Z,34.85
2019-05-23T15:03:37.792Z,34.62
2019-05-23T15:06:06.518Z,34.39
2019-05-23T15:08:50.534Z,34.84
2019-05-23T15:11:06.029Z,34.73
2019-05-23T15:13:34.654Z,35.74
2019-05-23T15:16:03.873Z,32.79
2019-05-23T15:18:32.525Z,34.38
2019-05-23T15:21:01.147Z,33.60
2019-05-23T15:23:29.872Z,32.94
2019-05-23T15:25:58.599Z,32.98
2019-05-23T15:28:27.232Z,32.63
2019-05-23T15:30:55.906Z,33.67
2019-05-23T15:33:24.505Z,33.29
2019-05-23T15:35:54.100Z,33.48
2019-05-23T15:38:22.757Z,34.81
2019-05-23T15:40:51.753Z,35.20
2019-05-23T15:43:20.445Z,36.05
2019-05-23T15:45:49.174Z,35.56
2019-05-23T15:48:17.913Z,35.87
2019-05-23T15:50:48.192Z,39.03
2019-05-23T15:53:36.429Z,40.49
2019-05-23T15:56:28.066Z,41.36
2019-05-23T15:59:10.290Z,41.15
2019-05-23T16:01:46.348Z,41.39
2019-05-23T16:04:22.644Z,42.02
2019-05-23T16:06:51.580Z,42.59
2019-05-23T16:09:29.322Z,41.97
2019-05-23T16:11:51.464Z,43.04
2019-05-23T16:14:22.271Z,43.17
2019-05-23T16:16:55.584Z,43.41
2019-05-23T16:19:22.055Z,42.45
2019-05-23T16:21:50.691Z,42.80
2019-05-23T16:24:19.423Z,41.55
2019-05-23T16:26:48.165Z,41.94
2019-05-23T16:29:17.180Z,42.38
2019-05-23T16:31:45.824Z,42.78
2019-05-23T16:34:14.456Z,43.00
2019-05-23T16:36:43.291Z,43.73
2019-05-23T16:39:12.002Z,44.03
2019-05-23T16:41:40.622Z,44.28
2019-05-23T16:44:09.232Z,44.54
2019-05-23T16:46:37.848Z,44.25
2019-05-23T16:49:06.695Z,44.10
2019-05-23T16:51:35.410Z,43.99
2019-05-23T16:54:04.449Z,43.89
2019-05-23T16:56:37.628Z,44.17
2019-05-23T16:59:13.851Z,44.51
2019-05-23T17:01:55.497Z,44.64
2019-05-23T17:04:19.296Z,45.16
2019-05-23T17:07:02.983Z,45.21
2019-05-23T17:09:42.083Z,45.30
2019-05-23T17:12:28.858Z,45.29
2019-05-23T17:14:59.133Z,45.87
2019-05-23T17:18:00.803Z,46.11
2019-05-23T17:20:19.585Z,46.57
2019-05-23T17:22:46.900Z,46.88
2019-05-23T17:25:23.524Z,47.66
2019-05-23T17:27:59.868Z,48.10
2019-05-23T17:30:38.868Z,48.26
2019-05-23T17:33:08.482Z,48.26
2019-05-23T17:35:37.299Z,47.90
2019-05-23T17:38:06.054Z,48.23
2019-05-23T17:40:37.628Z,48.49
2019-05-23T17:43:06.266Z,50.31
2019-05-23T17:45:43.938Z,47.64
2019-05-23T17:48:12.911Z,47.61
2019-05-23T17:50:43.572Z,47.29
2019-05-23T17:53:15.295Z,45.70
2019-05-23T17:55:46.184Z,45.00
2019-05-23T17:58:17.443Z,44.98
2019-05-23T18:00:51.412Z,45.06
2019-05-23T18:03:22.080Z,45.28
2019-05-23T18:05:53.277Z,45.25
2019-05-23T18:08:22.006Z,45.91
2019-05-23T18:10:51.718Z,46.19
2019-05-23T18:13:23.258Z,46.65
2019-05-23T18:15:54.694Z,46.69
2019-05-23T18:18:23.903Z,47.11
2019-05-23T18:20:52.950Z,47.30
2019-05-23T18:23:21.934Z,47.68
2019-05-23T18:25:51.640Z,48.25
2019-05-23T18:28:21.046Z,48.81
2019-05-23T18:31:00.739Z,49.66
2019-05-23T18:33:29.862Z,49.31
2019-05-23T18:35:58.918Z,50.03
2019-05-23T18:38:27.703Z,50.15
2019-05-23T18:41:04.135Z,53.06
2019-05-23T18:43:27.162Z,54.56
2019-05-23T18:45:57.448Z,55.17
2019-05-23T18:48:31.031Z,55.76
2019-05-23T18:51:01.222Z,56.81
2019-05-23T18:53:31.670Z,57.18
2019-05-23T18:56:02.991Z,57.25
2019-05-23T18:58:33.272Z,56.81
2019-05-23T19:01:07.117Z,56.88
2019-05-23T19:03:35.822Z,57.33
2019-05-23T19:06:04.766Z,54.88
2019-05-23T19:08:34.171Z,55.38
2019-05-23T19:11:17.807Z,55.32
2019-05-23T19:13:34.873Z,55.44
2019-05-23T19:16:06.189Z,54.81
2019-05-23T19:18:36.471Z,54.90
2019-05-23T19:21:09.498Z,54.74
2019-05-23T19:23:39.816Z,54.65
2019-05-23T19:26:08.887Z,54.68
2019-05-23T19:28:38.084Z,54.55
2019-05-23T19:31:06.839Z,55.39
2019-05-23T19:33:37.423Z,54.62
2019-05-23T19:36:08.421Z,54.87
2019-05-23T19:38:37.359Z,55.47
2019-05-23T19:41:08.567Z,55.81
2019-05-23T19:43:37.810Z,56.11
2019-05-23T19:46:06.520Z,55.15
2019-05-23T19:48:36.706Z,56.18
2019-05-23T19:51:07.849Z,57.11
2019-05-23T19:53:39.866Z,58.10
2019-05-23T19:56:08.903Z,58.66
2019-05-23T19:58:37.678Z,57.00
2019-05-23T20:01:07.218Z,55.91
2019-05-23T20:03:42.183Z,56.09
2019-05-23T20:06:11.899Z,55.58
2019-05-23T20:08:40.542Z,54.93
2019-05-23T20:11:09.422Z,55.80
2019-05-23T20:13:38.491Z,55.11
2019-05-23T20:16:07.671Z,55.44
2019-05-23T20:18:36.644Z,55.53
2019-05-23T20:21:05.563Z,55.32
2019-05-23T20:23:34.203Z,55.13
2019-05-23T20:26:07.683Z,55.61
2019-05-23T20:28:34.639Z,55.76
2019-05-23T20:31:04.131Z,56.03
2019-05-23T20:33:33.548Z,55.73
2019-05-23T20:36:03.912Z,56.03
2019-05-23T20:38:32.555Z,55.65
2019-05-23T20:41:01.360Z,55.44
2019-05-23T20:43:30.046Z,55.82
2019-05-23T20:45:58.672Z,56.40
2019-05-23T20:48:28.002Z,55.70
2019-05-23T20:50:56.590Z,55.79
2019-05-23T20:53:25.318Z,56.34
2019-05-23T20:55:53.959Z,55.79
2019-05-23T20:58:22.656Z,56.05
2019-05-23T21:00:58.879Z,56.71
2019-05-23T21:03:28.695Z,56.13
2019-05-23T21:05:57.425Z,56.29
2019-05-23T21:08:26.080Z,56.20
2019-05-23T21:10:54.710Z,56.41
2019-05-23T21:13:23.368Z,56.48
2019-05-23T21:15:52.124Z,57.04
2019-05-23T21:18:20.780Z,57.63
2019-05-23T21:20:49.437Z,57.34
2019-05-23T21:23:18.084Z,57.70
2019-05-23T21:25:51.100Z,57.87
2019-05-23T21:28:19.794Z,58.38
2019-05-23T21:30:48.436Z,58.43
2019-05-23T21:33:17.064Z,58.66
2019-05-23T21:35:45.715Z,58.65
2019-05-23T21:38:14.349Z,58.27
2019-05-23T21:40:44.663Z,58.22
2019-05-23T21:43:13.296Z,58.19
2019-05-23T21:45:42.328Z,58.74
2019-05-23T21:48:11.022Z,58.68
2019-05-23T21:50:39.998Z,59.08
2019-05-23T21:53:09.199Z,59.04
2019-05-23T21:55:39.735Z,59.26
2019-05-23T21:58:09.975Z,59.16
2019-05-23T22:01:07.323Z,59.37
2019-05-23T22:03:48.171Z,59.14
2019-05-23T22:06:18.433Z,59.82
2019-05-23T22:08:47.529Z,59.10
2019-05-23T22:11:17.137Z,59.26
2019-05-23T22:13:45.768Z,59.75
2019-05-23T22:16:14.897Z,59.86
2019-05-23T22:18:43.733Z,59.56
2019-05-23T22:21:12.883Z,58.80
2019-05-23T22:23:41.516Z,59.14
2019-05-23T22:26:10.246Z,59.18
2019-05-23T22:28:38.996Z,59.50
2019-05-23T22:31:08.889Z,59.40
2019-05-23T22:33:54.223Z,58.72
2019-05-23T22:36:24.117Z,58.28
2019-05-23T22:38:53.027Z,58.13
2019-05-23T22:41:21.734Z,58.08
2019-05-23T22:43:50.523Z,58.70
2019-05-23T22:46:20.900Z,59.25
2019-05-23T22:48:49.459Z,57.66
2019-05-23T22:51:18.090Z,57.59
2019-05-23T22:53:46.726Z,57.63
2019-05-23T22:56:15.572Z,58.27
2019-05-23T22:58:44.401Z,57.85
2019-05-23T23:01:14.014Z,57.95
2019-05-23T23:03:42.655Z,58.28
2019-05-23T23:06:11.491Z,59.09
2019-05-23T23:08:40.109Z,58.70
2019-05-23T23:11:08.750Z,59.48
2019-05-23T23:13:38.985Z,58.79
2019-05-23T23:16:08.141Z,58.64
2019-05-23T23:18:36.778Z,58.34
2019-05-23T23:21:05.408Z,58.82
2019-05-23T23:23:34.085Z,58.44
2019-05-23T23:26:02.648Z,59.10
2019-05-23T23:28:31.417Z,59.39
2019-05-23T23:31:00.111Z,59.40
2019-05-23T23:33:28.757Z,58.67
2019-05-23T23:35:57.327Z,59.14
2019-05-23T23:38:25.955Z,59.37
2019-05-23T23:40:54.631Z,59.02
2019-05-23T23:43:23.187Z,59.11
2019-05-23T23:46:10.024Z,59.17
2019-05-23T23:48:56.844Z,59.33
2019-05-23T23:51:43.117Z,58.51
2019-05-23T23:54:30.682Z,58.49
2019-05-23T23:57:17.599Z,58.50
2019-05-23T23:59:45.798Z,58.21
